Du har inga inställningar för hoppväder.nu

Hoppväder.nu

Senast uppdaterat 05:15

UTC-tid

2018-06-20 kl. 03:15


Sol och måne

Solen går upp 3:34 och går ner 22:17 (beräknade cirkatider)
Nästa fullmåne blir om 8 dagar (2018-06-28)

METAR

ESOW (Västerås)
(25 minuter sedan)
ESOW 200250Z AUTO 24010KT 210V270 9999 NCD 12/07 Q1010=



ESSA (Arlanda)
(25 minuter sedan)
ESSA 200250Z 24009KT CAVOK 12/07 Q1009 NOSIG=



ESKN (Skavsta)
(25 minuter sedan)
ESKN 200250Z 26015KT CAVOK 11/07 Q1011=



ESOE (Örebro)
(25 minuter sedan)
ESOE 200250Z AUTO 24010KT 200V260 9999 NCD 12/08 Q1011=



ESSD (Borlänge)
(25 minuter sedan)
ESSD 200250Z AUTO 27011KT 9999 NCD 11/01 Q1008=



TAF

ESOW (Västerås)
ESOW



ESSA (Arlanda)
(1665 minuter sedan)
ESSA 192330Z 2000/2024 25015KT CAVOK BECMG 2009/2011 26015G25KT PROB40 2015/2019 RA BKN012=



ESKN (Skavsta)
(1665 minuter sedan)
ESKN 192330Z 2000/2024 27013KT CAVOK BECMG 2014/2016 14005KT PROB40 2015/2021 RA BKN014 TEMPO 2021/2024 RA BKN008=



ESOE (Örebro)
(45 minuter sedan)
ESOE 200230Z 2003/2012 23012KT CAVOK BECMG 2007/2009 25016G26KT=



ESSD (Borlänge)
ESSD





Kodnycklar till TAF och METAR






LHP

(Västerås är område G2b i Södra delen)

Prognos är inte uppdaterad




Spotting

Hur fungerar spotthjälpen och Vindkartan?

Markvind är ca 0 m/s.



Vindkartan

Senast uppdaterad 05:15




All data kommer från LFV.se